Orofino, Idaho
Current Conditions -  °F | °C
As of 1:56 AM on Sunday 26 Oct 2014 (Local Time) from KLWS Reporting Station
Few Clouds Few Clouds  
Wind Chill: 57°   Ceiling: Unl
Heat Index: 57°   Visibility: 10mi
Dew Point: 36°   Wind: 17mph
Humidity: 45%   Direction: 250°WSW
Pressure: 29.81"   Gusts: NA
Location:  46.48°N, 116.26°W
Report Text: KLWS 260856Z AUTO 25015KT 10SM FEW075 14/02 A2981 RMK AO2 SLP090 60000 T01390022 51043
Loading
Personal Weather Stations






























Interactive Weather Map
Tropical Storm Tracking
New forecast layout! Learn more

10-Day Weather Forecast

Advertisements
Track Severe Weather on mobile